createdAt,value
2022-09-03T00:02:26.818Z,2.40
2022-09-03T00:04:57.434Z,2.20
2022-09-03T00:07:28.304Z,2.20
2022-09-03T00:10:00.664Z,2.43
2022-09-03T00:12:30.046Z,2.20
2022-09-03T00:15:02.753Z,2.10
2022-09-03T00:17:31.790Z,2.40
2022-09-03T00:20:00.768Z,2.00
2022-09-03T00:22:29.465Z,2.23
2022-09-03T00:25:01.096Z,2.30
2022-09-03T00:27:29.853Z,2.20
2022-09-03T00:30:01.558Z,1.90
2022-09-03T00:32:31.420Z,2.40
2022-09-03T00:34:59.957Z,2.13
2022-09-03T00:37:30.123Z,2.10
2022-09-03T00:40:05.580Z,2.50
2022-09-03T00:42:37.580Z,2.57
2022-09-03T00:45:11.556Z,2.33
2022-09-03T00:47:42.996Z,2.40
2022-09-03T00:50:12.943Z,2.10
2022-09-03T00:52:46.065Z,2.20
2022-09-03T00:55:15.739Z,2.20
2022-09-03T00:57:47.936Z,2.20
2022-09-03T01:00:18.985Z,1.87
2022-09-03T01:02:51.296Z,2.23
2022-09-03T01:05:23.513Z,2.13
2022-09-03T01:07:53.177Z,2.03
2022-09-03T01:10:27.366Z,2.40
2022-09-03T01:12:58.196Z,2.53
2022-09-03T01:15:30.567Z,2.20
2022-09-03T01:18:03.438Z,2.00
2022-09-03T01:20:35.954Z,2.27
2022-09-03T01:23:22.096Z,2.20
2022-09-03T01:25:52.700Z,2.17
2022-09-03T01:28:25.048Z,2.10
2022-09-03T01:30:57.304Z,2.00
2022-09-03T01:33:27.670Z,2.23
2022-09-03T01:35:58.478Z,2.13
2022-09-03T01:38:28.318Z,2.23
2022-09-03T01:41:19.815Z,2.07
2022-09-03T01:43:51.056Z,2.43
2022-09-03T01:46:20.509Z,2.43
2022-09-03T01:48:51.428Z,2.40
2022-09-03T01:51:21.089Z,2.20
2022-09-03T01:54:05.639Z,2.30
2022-09-03T01:56:39.345Z,2.20
2022-09-03T01:59:09.782Z,2.27
2022-09-03T02:01:39.104Z,2.00
2022-09-03T02:04:15.872Z,2.10
2022-09-03T02:06:44.711Z,2.00
2022-09-03T02:09:13.067Z,2.20
2022-09-03T02:11:41.709Z,2.40
2022-09-03T02:14:11.439Z,2.20
2022-09-03T02:16:39.897Z,2.63
2022-09-03T02:19:10.859Z,2.27
2022-09-03T02:21:40.085Z,2.33
2022-09-03T02:24:08.511Z,2.20
2022-09-03T02:26:36.880Z,2.30
2022-09-03T02:29:05.501Z,2.20
2022-09-03T02:31:35.429Z,2.73
2022-09-03T02:34:03.778Z,2.63
2022-09-03T02:36:32.812Z,2.43
2022-09-03T02:39:01.149Z,2.70
2022-09-03T02:41:29.513Z,2.50
2022-09-03T02:43:59.072Z,2.50
2022-09-03T02:46:27.948Z,2.20
2022-09-03T02:48:57.730Z,2.50
2022-09-03T02:51:26.029Z,2.10
2022-09-03T02:53:55.390Z,2.37
2022-09-03T02:56:27.934Z,2.57
2022-09-03T02:58:56.280Z,2.90
2022-09-03T03:01:24.802Z,2.43
2022-09-03T03:03:53.169Z,2.87
2022-09-03T03:06:22.913Z,2.73
2022-09-03T03:08:51.400Z,2.60
2022-09-03T03:11:19.941Z,2.20
2022-09-03T03:13:48.424Z,2.33
2022-09-03T03:16:17.663Z,2.23
2022-09-03T03:18:47.067Z,2.20
2022-09-03T03:21:16.293Z,2.60
2022-09-03T03:23:46.099Z,2.80
2022-09-03T03:26:14.878Z,2.80
2022-09-03T03:28:44.217Z,2.40
2022-09-03T03:31:13.031Z,2.40
2022-09-03T03:33:41.526Z,2.70
2022-09-03T03:36:10.739Z,2.73
2022-09-03T03:38:39.147Z,2.87
2022-09-03T03:41:12.252Z,3.23
2022-09-03T03:43:40.713Z,2.90
2022-09-03T03:46:09.142Z,2.87
2022-09-03T03:48:38.040Z,2.80
2022-09-03T03:51:07.492Z,2.53
2022-09-03T03:53:36.018Z,3.10
2022-09-03T03:56:05.132Z,2.90
2022-09-03T03:58:34.896Z,2.90
2022-09-03T04:01:06.344Z,2.80
2022-09-03T04:03:34.771Z,2.60
2022-09-03T04:06:04.686Z,2.50
2022-09-03T04:08:33.293Z,2.43
2022-09-03T04:11:01.671Z,2.50
2022-09-03T04:13:32.099Z,3.10
2022-09-03T04:16:05.607Z,3.13
2022-09-03T04:18:34.047Z,2.77
2022-09-03T04:21:04.722Z,3.03
2022-09-03T04:23:33.423Z,2.60
2022-09-03T04:26:01.795Z,2.57
2022-09-03T04:28:30.322Z,3.03
2022-09-03T04:31:02.343Z,2.70
2022-09-03T04:33:32.622Z,2.67
2022-09-03T04:36:05.498Z,3.17
2022-09-03T04:38:33.895Z,2.67
2022-09-03T04:41:02.357Z,2.70
2022-09-03T04:43:30.806Z,2.90
2022-09-03T04:46:00.086Z,2.70
2022-09-03T04:48:28.644Z,3.40
2022-09-03T04:51:05.928Z,2.73
2022-09-03T04:53:35.208Z,2.83
2022-09-03T04:56:04.166Z,3.00
2022-09-03T04:58:32.592Z,2.90
2022-09-03T05:01:01.874Z,5.33
2022-09-03T05:03:31.123Z,3.37
2022-09-03T05:06:00.899Z,3.53
2022-09-03T05:08:29.360Z,3.40
2022-09-03T05:11:00.716Z,2.73
2022-09-03T05:13:29.151Z,3.20
2022-09-03T05:16:00.745Z,2.47
2022-09-03T05:18:29.150Z,3.33
2022-09-03T05:21:02.601Z,3.13
2022-09-03T05:23:34.387Z,2.73
2022-09-03T05:26:09.114Z,3.13
2022-09-03T05:28:39.739Z,2.53
2022-09-03T05:31:08.727Z,2.90
2022-09-03T05:33:37.970Z,2.63
2022-09-03T05:36:08.299Z,3.10
2022-09-03T05:38:36.761Z,2.60
2022-09-03T05:41:05.768Z,3.10
2022-09-03T05:43:34.251Z,3.10
2022-09-03T05:46:02.895Z,2.90
2022-09-03T05:48:31.559Z,3.27
2022-09-03T05:51:03.245Z,2.80
2022-09-03T05:53:33.185Z,3.13
2022-09-03T05:56:01.927Z,2.93
2022-09-03T05:58:32.223Z,2.87
2022-09-03T06:01:00.582Z,2.97
2022-09-03T06:03:29.216Z,3.20
2022-09-03T06:05:58.068Z,2.87
2022-09-03T06:08:26.488Z,2.80
2022-09-03T06:11:00.723Z,2.73
2022-09-03T06:13:29.858Z,2.90
2022-09-03T06:15:58.601Z,3.10
2022-09-03T06:18:27.025Z,2.57
2022-09-03T06:20:58.663Z,2.87
2022-09-03T06:23:27.277Z,2.90
2022-09-03T06:26:05.503Z,2.87
2022-09-03T06:28:34.948Z,2.80
2022-09-03T06:31:03.475Z,3.07
2022-09-03T06:33:32.047Z,2.90
2022-09-03T06:36:00.914Z,2.97
2022-09-03T06:38:30.071Z,2.60
2022-09-03T06:40:58.868Z,3.30
2022-09-03T06:43:28.680Z,3.33
2022-09-03T06:45:57.718Z,2.63
2022-09-03T06:48:29.678Z,2.40
2022-09-03T06:50:58.632Z,2.90
2022-09-03T06:53:30.025Z,2.60
2022-09-03T06:56:01.336Z,2.77
2022-09-03T06:58:31.864Z,2.90
2022-09-03T07:01:03.587Z,3.20
2022-09-03T07:03:32.003Z,3.03
2022-09-03T07:06:02.672Z,3.30
2022-09-03T07:11:00.010Z,3.20
2022-09-03T07:13:28.603Z,2.53
2022-09-03T07:16:02.358Z,2.57
2022-09-03T07:18:30.897Z,2.90
2022-09-03T07:21:02.528Z,3.07
2022-09-03T07:23:31.181Z,2.87
2022-09-03T07:26:00.029Z,2.60
2022-09-03T07:28:28.548Z,2.90
2022-09-03T07:30:56.976Z,3.00
2022-09-03T07:33:26.792Z,2.60
2022-09-03T07:35:55.306Z,2.73
2022-09-03T07:38:29.901Z,2.57
2022-09-03T07:41:00.489Z,2.83
2022-09-03T07:43:29.254Z,2.60
2022-09-03T07:45:58.005Z,2.80
2022-09-03T07:48:28.097Z,2.33
2022-09-03T07:51:01.212Z,3.00
2022-09-03T07:53:29.832Z,2.80
2022-09-03T07:56:03.044Z,2.87
2022-09-03T07:58:31.679Z,2.50
2022-09-03T08:01:00.284Z,2.90
2022-09-03T08:03:30.185Z,2.47
2022-09-03T08:06:01.990Z,2.83
2022-09-03T08:08:31.278Z,2.63
2022-09-03T08:11:11.002Z,2.57
2022-09-03T08:13:40.818Z,2.50
2022-09-03T08:16:09.557Z,2.27
2022-09-03T08:18:39.486Z,2.80
2022-09-03T08:21:08.570Z,2.73
2022-09-03T08:23:38.799Z,2.40
2022-09-03T08:26:07.720Z,2.40
2022-09-03T08:28:36.431Z,2.40
2022-09-03T08:31:08.373Z,2.70
2022-09-03T08:33:41.120Z,2.80
2022-09-03T08:36:12.743Z,2.27
2022-09-03T08:38:43.938Z,2.37
2022-09-03T08:41:12.737Z,2.67
2022-09-03T08:43:45.768Z,2.33
2022-09-03T08:46:14.242Z,2.63
2022-09-03T08:48:42.613Z,2.30
2022-09-03T08:51:12.353Z,2.50
2022-09-03T08:53:42.631Z,2.20
2022-09-03T08:56:11.485Z,2.47
2022-09-03T08:58:44.426Z,2.33
2022-09-03T09:01:14.810Z,2.27
2022-09-03T09:03:49.962Z,2.20
2022-09-03T09:07:12.889Z,2.40
2022-09-03T09:09:49.027Z,2.40
2022-09-03T09:12:23.858Z,2.27
2022-09-03T09:14:53.411Z,2.47
2022-09-03T09:17:31.279Z,2.40
2022-09-03T09:20:01.843Z,2.47
2022-09-03T09:22:33.044Z,2.20
2022-09-03T09:25:05.365Z,2.60
2022-09-03T09:27:33.667Z,2.47
2022-09-03T09:30:05.028Z,2.40
2022-09-03T09:32:35.100Z,2.30
2022-09-03T09:35:03.710Z,2.47
2022-09-03T09:37:32.321Z,2.07
2022-09-03T09:40:01.563Z,2.20
2022-09-03T09:42:31.715Z,2.50
2022-09-03T09:45:00.223Z,2.20
2022-09-03T09:47:29.062Z,2.70
2022-09-03T09:49:57.897Z,2.23
2022-09-03T09:52:29.001Z,2.33
2022-09-03T09:55:08.245Z,2.90
2022-09-03T09:57:39.816Z,2.73
2022-09-03T10:00:10.527Z,2.40
2022-09-03T10:02:40.468Z,2.50
2022-09-03T10:05:16.116Z,2.50
2022-09-03T10:07:44.605Z,2.77
2022-09-03T10:10:17.017Z,2.40
2022-09-03T10:12:48.892Z,2.53
2022-09-03T10:15:20.925Z,3.00
2022-09-03T10:17:54.151Z,2.70
2022-09-03T10:20:32.024Z,2.77
2022-09-03T10:23:02.916Z,2.40
2022-09-03T10:25:33.441Z,2.80
2022-09-03T10:28:03.567Z,2.43
2022-09-03T10:30:40.071Z,2.53
2022-09-03T10:33:10.783Z,2.87
2022-09-03T10:35:40.270Z,2.30
2022-09-03T10:38:10.549Z,2.20
2022-09-03T10:40:39.679Z,2.40
2022-09-03T10:43:32.624Z,2.47
2022-09-03T10:46:06.474Z,2.60
2022-09-03T10:48:40.202Z,2.37
2022-09-03T10:51:08.939Z,2.20
2022-09-03T10:53:42.276Z,2.63
2022-09-03T10:56:13.428Z,2.20
2022-09-03T10:58:54.767Z,2.23
2022-09-03T11:01:28.190Z,2.50
2022-09-03T11:03:58.845Z,2.20
2022-09-03T11:06:27.979Z,2.63
2022-09-03T11:09:04.470Z,2.10
2022-09-03T11:11:37.572Z,2.33
2022-09-03T11:14:10.058Z,2.13
2022-09-03T11:16:40.216Z,2.20
2022-09-03T11:19:10.848Z,2.30
2022-09-03T11:21:41.871Z,2.13
2022-09-03T11:24:12.387Z,1.60
2022-09-03T11:26:41.240Z,1.80
2022-09-03T11:29:12.041Z,2.00
2022-09-03T11:31:48.100Z,1.60
2022-09-03T11:34:23.335Z,1.77
2022-09-03T11:37:07.245Z,1.60
2022-09-03T11:39:36.586Z,1.63
2022-09-03T11:42:07.102Z,1.70
2022-09-03T11:44:40.644Z,2.10
2022-09-03T11:47:25.133Z,1.75
2022-09-03T11:49:54.197Z,1.70
2022-09-03T11:52:28.772Z,1.95
2022-09-03T11:54:57.105Z,1.90
2022-09-03T11:57:26.064Z,2.03
2022-09-03T11:59:54.505Z,1.88
2022-09-03T12:02:28.215Z,2.33
2022-09-03T12:05:05.984Z,1.52
2022-09-03T12:07:38.572Z,2.00
2022-09-03T12:10:10.339Z,2.00
2022-09-03T12:12:46.067Z,2.08
2022-09-03T12:15:16.991Z,1.80
2022-09-03T12:17:49.926Z,1.60
2022-09-03T12:20:18.591Z,1.60
2022-09-03T12:22:47.141Z,1.80
2022-09-03T12:25:16.223Z,1.80
2022-09-03T12:27:44.745Z,1.73
2022-09-03T12:30:16.585Z,2.20
2022-09-03T12:32:46.612Z,2.00
2022-09-03T12:38:08.302Z,2.35
2022-09-03T12:41:23.337Z,2.00
2022-09-03T12:43:49.812Z,2.03
2022-09-03T12:46:21.096Z,1.98
2022-09-03T12:51:49.142Z,2.10
2022-09-03T12:54:20.008Z,2.70
2022-09-03T12:56:49.556Z,2.30
2022-09-03T12:59:18.972Z,2.20
2022-09-03T13:01:49.447Z,2.20
2022-09-03T13:04:18.884Z,2.42
2022-09-03T13:06:50.982Z,2.65
2022-09-03T13:09:21.267Z,2.22
2022-09-03T13:11:52.451Z,2.25
2022-09-03T13:14:21.242Z,2.58
2022-09-03T13:16:54.397Z,2.30
2022-09-03T13:19:24.085Z,2.20
2022-09-03T13:21:55.404Z,2.40
2022-09-03T13:24:35.458Z,2.03
2022-09-03T13:27:08.445Z,2.30
2022-09-03T13:29:40.306Z,2.50
2022-09-03T13:32:14.172Z,2.20
2022-09-03T13:34:43.904Z,2.25
2022-09-03T13:37:18.452Z,2.03
2022-09-03T13:39:52.547Z,2.50
2022-09-03T13:42:23.671Z,2.42
2022-09-03T13:44:52.613Z,2.40
2022-09-03T13:47:25.089Z,2.45
2022-09-03T13:50:12.821Z,2.00
2022-09-03T13:52:43.604Z,2.30
2022-09-03T13:55:14.432Z,6.78
2022-09-03T13:57:46.935Z,2.60
2022-09-03T14:00:15.637Z,2.60
2022-09-03T14:02:52.667Z,2.30
2022-09-03T14:05:25.065Z,2.00
2022-09-03T14:08:04.615Z,1.90
2022-09-03T14:10:46.932Z,2.22
2022-09-03T14:13:16.925Z,2.45
2022-09-03T14:15:45.920Z,1.80
2022-09-03T14:18:15.942Z,2.30
2022-09-03T14:20:46.450Z,2.30
2022-09-03T14:23:24.254Z,2.58
2022-09-03T14:25:55.694Z,2.20
2022-09-03T14:28:30.312Z,2.58
2022-09-03T14:31:00.704Z,2.30
2022-09-03T14:33:30.270Z,2.80
2022-09-03T14:36:04.832Z,2.30
2022-09-03T14:38:47.391Z,2.30
2022-09-03T14:41:28.980Z,2.30
2022-09-03T14:44:02.002Z,2.65
2022-09-03T14:46:34.338Z,2.47
2022-09-03T14:49:06.620Z,2.78
2022-09-03T14:51:37.831Z,2.53
2022-09-03T14:54:16.555Z,2.97
2022-09-03T14:56:47.778Z,2.92
2022-09-03T14:59:21.207Z,2.88
2022-09-03T15:01:50.324Z,2.55
2022-09-03T15:04:34.968Z,2.78
2022-09-03T15:07:10.324Z,2.80
2022-09-03T15:09:42.303Z,2.58
2022-09-03T15:12:11.022Z,2.83
2022-09-03T15:14:41.175Z,3.17
2022-09-03T15:17:20.268Z,2.60
2022-09-03T15:20:01.034Z,2.75
2022-09-03T15:22:37.029Z,2.00
2022-09-03T15:25:09.439Z,2.35
2022-09-03T15:27:44.626Z,2.55
2022-09-03T15:30:13.362Z,2.72
2022-09-03T15:32:45.902Z,3.08
2022-09-03T15:35:15.852Z,2.75
2022-09-03T15:37:45.918Z,2.73
2022-09-03T15:40:23.503Z,2.67
2022-09-03T15:42:52.381Z,2.87
2022-09-03T15:45:36.557Z,2.40
2022-09-03T15:48:08.157Z,2.80
2022-09-03T15:50:37.678Z,2.20
2022-09-03T15:53:08.053Z,2.70
2022-09-03T15:55:39.313Z,2.43
2022-09-03T15:58:25.857Z,2.30
2022-09-03T16:00:58.070Z,2.60
2022-09-03T16:03:33.994Z,2.60
2022-09-03T16:06:04.703Z,2.27
2022-09-03T16:08:36.215Z,2.77
2022-09-03T16:11:07.762Z,2.57
2022-09-03T16:13:55.166Z,2.33
2022-09-03T16:16:25.603Z,2.87
2022-09-03T16:18:59.120Z,3.00
2022-09-03T16:21:29.161Z,2.70
2022-09-03T16:23:59.969Z,2.80
2022-09-03T16:26:31.486Z,2.93
2022-09-03T16:29:03.120Z,2.97
2022-09-03T16:31:36.619Z,3.00
2022-09-03T16:34:07.490Z,2.90
2022-09-03T16:36:40.837Z,4.57
2022-09-03T16:39:12.052Z,2.83
2022-09-03T16:41:44.530Z,2.60
2022-09-03T16:44:16.035Z,2.70
2022-09-03T16:46:46.693Z,3.27
2022-09-03T16:49:23.365Z,2.77
2022-09-03T16:51:54.540Z,3.40
2022-09-03T16:54:27.695Z,3.00
2022-09-03T16:57:02.595Z,4.00
2022-09-03T16:59:45.051Z,3.20
2022-09-03T17:02:39.999Z,2.67
2022-09-03T17:05:18.738Z,2.80
2022-09-03T17:07:54.141Z,2.93
2022-09-03T17:10:23.424Z,2.30
2022-09-03T17:12:57.129Z,2.20
2022-09-03T17:15:32.314Z,2.53
2022-09-03T17:18:22.005Z,2.57
2022-09-03T17:20:51.872Z,2.80
2022-09-03T17:23:34.220Z,3.10
2022-09-03T17:26:03.061Z,2.57
2022-09-03T17:28:35.987Z,2.50
2022-09-03T17:31:09.890Z,2.53
2022-09-03T17:33:44.898Z,3.87
2022-09-03T17:36:14.484Z,2.87
2022-09-03T17:38:46.868Z,2.80
2022-09-03T17:41:17.253Z,2.60
2022-09-03T17:43:48.580Z,3.00
2022-09-03T17:46:23.867Z,3.20
2022-09-03T17:48:52.548Z,3.30
2022-09-03T17:51:32.765Z,3.53
2022-09-03T17:54:02.528Z,3.63
2022-09-03T17:56:32.280Z,4.10
2022-09-03T17:59:05.778Z,3.80
2022-09-03T18:01:35.522Z,3.77
2022-09-03T18:04:05.568Z,3.57
2022-09-03T18:06:34.929Z,3.63
2022-09-03T18:09:04.580Z,3.33
2022-09-03T18:11:34.198Z,3.10
2022-09-03T18:14:06.547Z,2.93
2022-09-03T18:16:35.422Z,3.60
2022-09-03T18:19:05.039Z,4.73
2022-09-03T18:21:53.134Z,3.93
2022-09-03T18:24:41.222Z,3.50
2022-09-03T18:27:28.578Z,3.40
2022-09-03T18:30:21.315Z,3.17
2022-09-03T18:33:07.811Z,2.90
2022-09-03T18:35:54.053Z,2.70
2022-09-03T18:38:43.253Z,2.57
2022-09-03T18:41:33.119Z,2.57
2022-09-03T18:44:20.830Z,2.80
2022-09-03T18:50:18.336Z,2.73
2022-09-03T18:53:07.770Z,3.30
2022-09-03T18:55:57.881Z,3.07
2022-09-03T18:58:45.203Z,2.87
2022-09-03T19:01:35.126Z,3.17
2022-09-03T19:04:23.985Z,2.70
2022-09-03T19:07:12.398Z,2.80
2022-09-03T19:10:01.395Z,2.70
2022-09-03T19:12:59.169Z,2.80
2022-09-03T19:15:46.696Z,3.03
2022-09-03T19:18:36.755Z,2.47
2022-09-03T19:21:29.921Z,2.70
2022-09-03T19:24:17.092Z,2.80
2022-09-03T19:27:29.894Z,2.63
2022-09-03T19:30:18.351Z,2.73
2022-09-03T19:33:06.244Z,2.80
2022-09-03T19:35:54.074Z,2.77
2022-09-03T19:38:45.841Z,2.47
2022-09-03T19:41:33.887Z,2.90
2022-09-03T19:44:23.004Z,2.73
2022-09-03T19:47:09.829Z,2.93
2022-09-03T19:49:58.139Z,2.90
2022-09-03T19:52:45.628Z,2.90
2022-09-03T19:55:34.538Z,2.87
2022-09-03T19:58:41.528Z,3.10
2022-09-03T20:01:26.278Z,2.90
2022-09-03T20:04:12.792Z,2.87
2022-09-03T20:06:58.945Z,3.00
2022-09-03T20:09:46.190Z,3.10
2022-09-03T20:12:16.041Z,3.47
2022-09-03T20:14:44.427Z,3.30
2022-09-03T20:17:17.272Z,3.50
2022-09-03T20:19:51.357Z,3.40
2022-09-03T20:22:21.899Z,3.10
2022-09-03T20:24:58.816Z,4.00
2022-09-03T20:27:31.910Z,3.60
2022-09-03T20:30:04.434Z,4.70
2022-09-03T20:32:47.736Z,4.00
2022-09-03T20:35:23.513Z,4.13
2022-09-03T20:37:53.596Z,3.40
2022-09-03T20:40:26.962Z,3.87
2022-09-03T20:43:05.015Z,3.90
2022-09-03T20:45:34.248Z,3.53
2022-09-03T20:48:05.403Z,3.70
2022-09-03T20:50:43.291Z,4.50
2022-09-03T20:53:16.119Z,4.67
2022-09-03T20:55:45.456Z,4.40
2022-09-03T20:58:16.671Z,5.10
2022-09-03T21:00:48.056Z,5.73
2022-09-03T21:03:17.765Z,5.40
2022-09-03T21:05:47.738Z,5.80
2022-09-03T21:08:20.360Z,5.80
2022-09-03T21:10:50.016Z,6.00
2022-09-03T21:13:21.126Z,5.40
2022-09-03T21:15:56.460Z,5.03
2022-09-03T21:18:27.118Z,5.00
2022-09-03T21:20:58.114Z,4.73
2022-09-03T21:23:27.388Z,4.83
2022-09-03T21:25:58.494Z,4.77
2022-09-03T21:28:29.321Z,4.90
2022-09-03T21:30:59.766Z,4.80
2022-09-03T21:33:29.640Z,4.73
2022-09-03T21:36:01.215Z,5.27
2022-09-03T21:38:30.291Z,5.00
2022-09-03T21:41:00.028Z,4.27
2022-09-03T21:43:30.700Z,4.63
2022-09-03T21:46:00.278Z,4.83
2022-09-03T21:48:33.860Z,4.47
2022-09-03T21:51:02.581Z,4.40
2022-09-03T21:53:33.201Z,4.80
2022-09-03T21:56:09.247Z,5.27
2022-09-03T21:58:42.336Z,5.37
2022-09-03T22:01:12.607Z,6.47
2022-09-03T22:03:42.254Z,7.00
2022-09-03T22:06:11.614Z,7.33
2022-09-03T22:08:42.145Z,7.07
2022-09-03T22:11:12.018Z,6.50
2022-09-03T22:13:43.090Z,6.37
2022-09-03T22:16:13.786Z,6.70
2022-09-03T22:18:44.217Z,6.00
2022-09-03T22:21:14.703Z,6.07
2022-09-03T22:23:46.174Z,5.40
2022-09-03T22:26:21.310Z,5.50
2022-09-03T22:28:52.823Z,5.47
2022-09-03T22:31:22.078Z,5.07
2022-09-03T22:33:52.241Z,5.37
2022-09-03T22:36:20.613Z,5.27
2022-09-03T22:39:07.111Z,5.47
2022-09-03T22:41:40.802Z,6.00
2022-09-03T22:44:12.141Z,5.27
2022-09-03T22:46:41.983Z,5.60
2022-09-03T22:49:13.052Z,5.57
2022-09-03T22:51:45.041Z,5.63
2022-09-03T22:54:17.077Z,5.37
2022-09-03T22:56:45.616Z,5.00
2022-09-03T22:59:16.121Z,5.67
2022-09-03T23:01:45.151Z,5.77
2022-09-03T23:04:18.357Z,5.70
2022-09-03T23:06:51.049Z,5.97
2022-09-03T23:09:19.776Z,6.47
2022-09-03T23:11:50.228Z,5.93
2022-09-03T23:14:20.451Z,6.27
2022-09-03T23:16:51.217Z,6.50
2022-09-03T23:21:52.841Z,7.67
2022-09-03T23:24:23.039Z,7.70
2022-09-03T23:26:53.496Z,7.40
2022-09-03T23:29:26.197Z,6.90
2022-09-03T23:31:55.753Z,7.07
2022-09-03T23:34:24.378Z,7.13
2022-09-03T23:37:33.034Z,7.83
2022-09-03T23:40:25.232Z,7.00
2022-09-03T23:43:06.803Z,7.67
2022-09-03T23:45:38.447Z,7.83
2022-09-03T23:48:08.973Z,8.33
2022-09-03T23:50:40.047Z,8.60
2022-09-03T23:53:14.769Z,9.30
2022-09-03T23:55:46.078Z,8.77
2022-09-03T23:58:17.569Z,8.83
